Time;durP1;ratioP1;P1;durP2;ratioP2;P2;SDS_P1;SDS_P2;PMS_P1;PMS_P2;Temp;Humidity;BMP_temperature;BMP_pressure;BME280_temperature;BME280_humidity;BME280_pressure;Samples;Min_cycle;Max_cycle;Signal;HPM_P1;HPM_P2
2023/04/21 00:01:28;;;;;;;29.87;20.23;;;;;;;4.42;100.00;97797.56;4994431;28;20240;-76
2023/04/21 00:03:55;;;;;;;31.73;20.73;;;;;;;4.41;100.00;97801.13;4994003;28;20241;-76
2023/04/21 00:06:22;;;;;;;32.40;20.83;;;;;;;4.39;100.00;97801.19;4995008;28;20237;-75
2023/04/21 00:08:48;;;;;;;29.30;19.50;;;;;;;4.41;100.00;97803.75;4996072;28;20303;-75
2023/04/21 00:11:16;;;;;;;28.27;18.87;;;;;;;4.42;100.00;97806.28;4998395;28;20232;-75
2023/04/21 00:13:43;;;;;;;27.67;18.30;;;;;;;4.39;100.00;97803.81;5008223;28;20304;-75
2023/04/21 00:16:10;;;;;;;29.20;19.23;;;;;;;4.36;100.00;97805.72;4997930;28;20214;-74
2023/04/21 00:18:37;;;;;;;28.47;19.23;;;;;;;4.32;100.00;97805.03;4997806;28;20212;-77
2023/04/21 00:21:03;;;;;;;25.27;18.10;;;;;;;4.29;100.00;97799.94;4992745;28;20233;-76
2023/04/21 00:23:30;;;;;;;27.40;18.17;;;;;;;4.27;100.00;97796.56;4993835;28;20236;-76
2023/04/21 00:25:56;;;;;;;27.50;18.80;;;;;;;4.26;100.00;97797.50;4993919;28;20217;-76
2023/04/21 00:28:24;;;;;;;27.47;18.17;;;;;;;4.28;100.00;97794.81;4992029;28;20302;-77
2023/04/21 00:30:53;;;;;;;25.70;18.27;;;;;;;4.26;100.00;97805.34;4991789;28;20251;-77
2023/04/21 00:33:19;;;;;;;26.63;17.63;;;;;;;4.27;100.00;97788.72;4993918;28;20236;-77
2023/04/21 00:35:46;;;;;;;26.07;17.07;;;;;;;4.27;100.00;97796.56;4993306;28;20252;-75
2023/04/21 00:38:12;;;;;;;28.43;18.90;;;;;;;4.25;100.00;97795.81;4991217;28;20208;-75
2023/04/21 00:40:39;;;;;;;29.67;18.77;;;;;;;4.26;100.00;97792.25;4991366;28;20236;-75
2023/04/21 00:43:06;;;;;;;28.50;18.43;;;;;;;4.26;100.00;97787.03;4992852;28;20262;-76
2023/04/21 00:45:34;;;;;;;29.23;18.27;;;;;;;4.28;100.00;97790.41;5002344;28;20225;-75
2023/04/21 00:48:01;;;;;;;28.83;18.37;;;;;;;4.26;100.00;97781.81;5009688;28;20220;-75
2023/04/21 00:50:28;;;;;;;28.83;18.10;;;;;;;4.27;100.00;97780.03;5000026;28;20228;-75
2023/04/21 00:52:56;;;;;;;27.87;18.87;;;;;;;4.29;100.00;97776.41;5006684;28;20211;-75
2023/04/21 00:55:22;;;;;;;29.00;17.90;;;;;;;4.27;100.00;97778.25;5010061;28;20217;-76
2023/04/21 00:57:50;;;;;;;29.80;19.47;;;;;;;4.25;100.00;97772.25;5008100;28;20244;-76
2023/04/21 01:00:17;;;;;;;31.50;20.53;;;;;;;4.27;100.00;97769.59;5001544;28;20249;-75
2023/04/21 01:02:46;;;;;;;29.27;18.43;;;;;;;4.29;100.00;97767.72;5006544;28;20244;-75
2023/04/21 01:05:13;;;;;;;30.30;19.37;;;;;;;4.30;100.00;97770.28;5006942;28;20212;-75
2023/04/21 01:07:40;;;;;;;32.40;19.10;;;;;;;4.29;100.00;97768.56;5002117;28;20679;-74
2023/04/21 01:10:08;;;;;;;28.57;18.27;;;;;;;4.32;100.00;97773.66;5004083;28;20219;-75
2023/04/21 01:12:42;;;;;;;25.73;17.73;;;;;;;4.31;100.00;97769.34;5015495;28;20196;-75
2023/04/21 01:15:10;;;;;;;28.33;18.93;;;;;;;4.31;100.00;97771.97;5015791;28;20311;-75
2023/04/21 01:17:37;;;;;;;28.97;18.47;;;;;;;4.31;100.00;97764.13;5015633;28;20212;-76
2023/04/21 01:20:08;;;;;;;30.73;19.27;;;;;;;4.31;100.00;97761.50;5014988;28;20221;-75
2023/04/21 01:22:37;;;;;;;30.03;19.00;;;;;;;4.30;100.00;97751.97;5015560;28;20235;-75
2023/04/21 01:25:05;;;;;;;29.93;18.50;;;;;;;4.28;100.00;97753.78;5015666;28;20224;-75
2023/04/21 01:27:32;;;;;;;28.13;18.27;;;;;;;4.20;100.00;97753.34;4994717;28;20243;-75
2023/04/21 01:29:58;;;;;;;30.57;18.70;;;;;;;4.14;100.00;97758.88;4991677;28;20245;-76
2023/04/21 01:32:27;;;;;;;32.23;19.87;;;;;;;4.20;100.00;97753.34;4992910;28;20218;-75
2023/04/21 01:34:55;;;;;;;28.90;18.63;;;;;;;4.11;100.00;97763.41;4993537;28;20596;-76
2023/04/21 01:37:24;;;;;;;29.03;18.57;;;;;;;4.02;100.00;97756.88;4999609;28;20211;-75
2023/04/21 01:39:54;;;;;;;30.73;19.07;;;;;;;3.99;100.00;97759.66;4997648;28;20208;-75
2023/04/21 01:42:22;;;;;;;29.17;18.70;;;;;;;3.96;100.00;97754.53;4991719;28;20215;-77
2023/04/21 01:44:49;;;;;;;30.70;18.57;;;;;;;3.88;100.00;97767.16;4993623;28;20235;-75
2023/04/21 01:47:16;;;;;;;30.10;18.30;;;;;;;3.82;100.00;97764.84;4993304;28;20222;-76
2023/04/21 01:49:43;;;;;;;29.30;17.97;;;;;;;3.81;100.00;97770.13;4991627;28;20643;-76
2023/04/21 01:52:10;;;;;;;30.33;17.57;;;;;;;3.75;100.00;97770.44;4993112;28;20219;-76
2023/04/21 01:54:36;;;;;;;33.60;19.13;;;;;;;3.76;100.00;97772.97;4991726;28;20207;-76
2023/04/21 01:57:05;;;;;;;35.70;21.13;;;;;;;3.77;100.00;97768.56;4989920;28;20212;-75
2023/04/21 01:59:32;;;;;;;35.63;19.50;;;;;;;3.78;100.00;97773.75;4989353;28;20223;-75
2023/04/21 02:01:58;;;;;;;30.10;19.43;;;;;;;3.74;100.00;97774.78;4989940;28;20240;-75
2023/04/21 02:04:25;;;;;;;29.07;17.37;;;;;;;3.71;100.00;97777.56;4989636;28;20231;-76
2023/04/21 02:06:51;;;;;;;30.87;17.53;;;;;;;3.63;100.00;97776.22;4989804;28;20222;-75
2023/04/21 02:09:18;;;;;;;29.80;17.70;;;;;;;3.56;100.00;97770.44;4989040;28;20224;-76
2023/04/21 02:11:44;;;;;;;30.33;17.93;;;;;;;3.55;100.00;97778.38;4989564;28;20243;-76
2023/04/21 02:14:12;;;;;;;31.73;18.03;;;;;;;3.53;100.00;97775.81;4989930;28;20218;-77
2023/04/21 02:16:38;;;;;;;28.00;16.73;;;;;;;3.53;100.00;97775.81;4989816;28;20207;-75
2023/04/21 02:19:05;;;;;;;23.70;14.83;;;;;;;3.49;100.00;97774.25;4989473;28;20208;-75
2023/04/21 02:21:32;;;;;;;25.20;16.00;;;;;;;3.42;100.00;97767.63;4989325;28;20240;-77
2023/04/21 02:23:58;;;;;;;25.67;16.17;;;;;;;3.39;100.00;97762.56;4989322;28;20231;-75
2023/04/21 02:26:25;;;;;;;28.53;17.47;;;;;;;3.40;100.00;97763.41;4989451;28;20672;-76
2023/04/21 02:28:51;;;;;;;31.10;18.17;;;;;;;3.45;100.00;97772.72;4989417;28;20215;-76
2023/04/21 02:31:19;;;;;;;26.23;16.53;;;;;;;3.42;100.00;97767.63;5049938;22;20259;-78
2023/04/21 02:33:46;;;;;;;27.17;16.40;;;;;;;3.37;100.00;97764.38;5099332;28;20210;-78
2023/04/21 02:36:12;;;;;;;27.80;17.43;;;;;;;3.35;100.00;97758.41;5099989;28;20216;-78
2023/04/21 02:38:39;;;;;;;30.77;18.70;;;;;;;3.31;100.00;97756.00;5099192;28;20665;-78
2023/04/21 02:41:05;;;;;;;35.07;19.10;;;;;;;3.37;100.00;97759.16;5096373;28;20620;-78
2023/04/21 02:43:32;;;;;;;32.27;18.10;;;;;;;3.36;100.00;97756.66;5091613;28;20236;-78
2023/04/21 02:45:58;;;;;;;32.93;18.20;;;;;;;3.35;100.00;97770.59;5091695;28;20237;-78
2023/04/21 02:48:27;;;;;;;30.37;17.70;;;;;;;3.36;100.00;97767.91;5091773;28;20225;-78
2023/04/21 02:50:53;;;;;;;34.93;19.17;;;;;;;3.37;100.00;97769.59;5090714;28;20233;-78
2023/04/21 02:53:20;;;;;;;34.97;18.43;;;;;;;3.38;100.00;97771.34;5091473;28;20204;-78
2023/04/21 02:55:46;;;;;;;41.77;19.53;;;;;;;3.37;100.00;97769.59;5091564;28;20277;-78
2023/04/21 02:58:13;;;;;;;39.03;18.87;;;;;;;3.35;100.00;97770.59;5106816;28;20608;-78
2023/04/21 03:00:40;;;;;;;38.27;18.77;;;;;;;3.34;100.00;97779.34;5105519;28;20232;-78
2023/04/21 03:03:06;;;;;;;30.70;17.07;;;;;;;3.37;100.00;97776.63;5106269;28;20216;-78
2023/04/21 03:05:34;;;;;;;27.87;15.57;;;;;;;3.36;100.00;97775.75;5106842;28;20218;-78
2023/04/21 03:08:00;;;;;;;27.80;16.00;;;;;;;3.32;100.00;97776.84;5096589;28;20215;-78
2023/04/21 03:10:27;;;;;;;29.17;16.40;;;;;;;3.33;100.00;97762.84;5092959;28;20592;-78
2023/04/21 03:12:55;;;;;;;32.70;17.87;;;;;;;3.35;100.00;97771.47;5092515;28;20202;-78
2023/04/21 03:15:21;;;;;;;26.67;15.23;;;;;;;3.35;100.00;97761.00;5092423;28;20312;-78
2023/04/21 03:17:48;;;;;;;31.63;17.47;;;;;;;3.33;100.00;97762.84;5092720;28;20206;-78
2023/04/21 03:20:15;;;;;;;59.63;21.07;;;;;;;3.33;100.00;97752.41;5091386;28;20211;-77
2023/04/21 03:22:42;;;;;;;34.93;18.63;;;;;;;3.35;100.00;97755.78;5091954;28;20673;-78
2023/04/21 03:25:10;;;;;;;31.83;17.70;;;;;;;3.36;100.00;97740.97;5091758;28;20566;-78
2023/04/21 03:27:36;;;;;;;32.70;17.40;;;;;;;3.42;100.00;97738.91;5091071;28;20207;-78
2023/04/21 03:30:04;;;;;;;25.60;15.40;;;;;;;3.30;100.00;97736.88;5089992;28;20678;-78
2023/04/21 03:32:30;;;;;;;36.43;15.37;;;;;;;3.30;100.00;97726.41;5090769;28;20242;-78
2023/04/21 03:34:57;;;;;;;21.80;13.53;;;;;;;3.28;100.00;97737.84;5090753;28;20207;-78
2023/04/21 03:37:23;;;;;;;22.37;12.37;;;;;;;3.19;100.00;97744.34;5091085;28;20207;-78
2023/04/21 03:39:51;;;;;;;20.93;12.60;;;;;;;3.13;100.00;97752.47;5090325;28;20211;-78
2023/04/21 03:42:17;;;;;;;18.00;11.97;;;;;;;3.08;100.00;97746.63;5090858;28;20237;-78
2023/04/21 03:44:44;;;;;;;19.90;12.67;;;;;;;3.09;100.00;97750.06;5090663;28;20231;-78
2023/04/21 03:47:10;;;;;;;26.97;14.57;;;;;;;3.02;100.00;97757.34;5090686;28;20607;-78
2023/04/21 03:49:37;;;;;;;27.70;13.60;;;;;;;3.02;100.00;97752.13;5090063;28;20210;-79
2023/04/21 03:52:04;;;;;;;22.17;13.53;;;;;;;3.01;100.00;97747.78;5090782;28;20230;-78
2023/04/21 03:54:30;;;;;;;19.63;12.53;;;;;;;3.04;100.00;97750.28;5090563;28;20200;-78
2023/04/21 03:56:58;;;;;;;20.90;12.40;;;;;;;3.05;100.00;97751.97;5090635;28;20207;-78
2023/04/21 03:59:24;;;;;;;29.73;14.40;;;;;;;3.03;100.00;97759.03;5089892;28;20219;-78
2023/04/21 04:01:51;;;;;;;24.33;14.60;;;;;;;3.04;100.00;97763.34;5090518;28;20685;-79
2023/04/21 04:04:18;;;;;;;22.30;13.47;;;;;;;3.07;100.00;97765.78;5090367;28;20227;-78
2023/04/21 04:06:44;;;;;;;22.47;13.57;;;;;;;3.12;100.00;97766.44;5092832;28;20215;-78
2023/04/21 04:09:11;;;;;;;25.10;14.10;;;;;;;3.15;100.00;97763.69;5093481;28;20210;-78
2023/04/21 04:11:37;;;;;;;24.37;14.00;;;;;;;3.17;100.00;97763.63;5094193;28;20224;-78
2023/04/21 04:14:05;;;;;;;23.50;13.30;;;;;;;3.17;100.00;97761.84;5094060;28;20203;-78
2023/04/21 04:16:33;;;;;;;28.67;15.10;;;;;;;3.17;100.00;97759.25;5094026;28;20208;-78
2023/04/21 04:19:00;;;;;;;27.17;14.90;;;;;;;3.23;100.00;97760.72;5094182;28;20207;-78
2023/04/21 04:21:27;;;;;;;25.17;14.23;;;;;;;3.23;100.00;97751.13;5093463;28;20326;-78
2023/04/21 04:23:53;;;;;;;30.53;16.17;;;;;;;3.25;100.00;97749.28;5094176;28;20322;-78
2023/04/21 04:26:21;;;;;;;26.50;14.87;;;;;;;3.25;100.00;97756.28;5093957;28;20230;-78
2023/04/21 04:28:48;;;;;;;36.17;17.00;;;;;;;3.26;100.00;97750.16;5093765;28;20204;-78
2023/04/21 04:31:16;;;;;;;46.53;18.27;;;;;;;3.29;100.00;97756.06;5092827;28;20241;-78
2023/04/21 04:33:42;;;;;;;33.30;16.70;;;;;;;3.33;100.00;97760.25;5094056;28;20206;-78
2023/04/21 04:36:09;;;;;;;38.47;17.23;;;;;;;3.34;100.00;97756.72;5093611;28;20218;-78
2023/04/21 04:38:36;;;;;;;31.17;17.20;;;;;;;3.36;100.00;97767.91;5093651;28;20665;-78
2023/04/21 04:41:03;;;;;;;35.23;16.30;;;;;;;3.36;100.00;97762.69;5093064;28;20321;-78
2023/04/21 04:43:32;;;;;;;31.00;15.70;;;;;;;3.34;100.00;97753.25;5093666;28;20206;-78
2023/04/21 04:45:59;;;;;;;27.43;15.37;;;;;;;3.36;100.00;97746.19;5093604;28;20215;-78
2023/04/21 04:48:26;;;;;;;22.60;14.17;;;;;;;3.39;100.00;97757.34;5093626;28;20210;-78
2023/04/21 04:50:53;;;;;;;27.27;14.77;;;;;;;3.48;100.00;97756.91;5092503;28;20236;-78
2023/04/21 04:53:19;;;;;;;25.63;14.73;;;;;;;3.53;100.00;97770.59;5093382;28;20204;-78
2023/04/21 04:55:46;;;;;;;29.40;16.03;;;;;;;3.59;100.00;97774.69;5093092;28;20218;-78
2023/04/21 04:58:13;;;;;;;32.20;16.87;;;;;;;3.65;100.00;97772.63;5093165;28;20208;-78
2023/04/21 05:00:39;;;;;;;25.73;14.40;;;;;;;3.73;100.00;97773.09;5092426;28;20238;-78
2023/04/21 05:03:06;;;;;;;34.33;16.37;;;;;;;3.78;100.00;97773.75;5093506;28;20209;-78
2023/04/21 05:05:34;;;;;;;33.13;16.97;;;;;;;3.84;100.00;97770.00;5092942;28;20747;-78
2023/04/21 05:08:00;;;;;;;40.17;18.37;;;;;;;3.90;100.00;97775.75;5093160;28;20210;-78
2023/04/21 05:10:27;;;;;;;33.03;16.63;;;;;;;3.89;100.00;97774.06;5092278;28;20231;-78
2023/04/21 05:12:53;;;;;;;34.47;18.70;;;;;;;3.91;100.00;97777.44;5092959;28;20240;-78
2023/04/21 05:15:21;;;;;;;42.77;20.40;;;;;;;3.97;100.00;97782.38;5093110;28;20674;-78
2023/04/21 05:17:47;;;;;;;44.27;20.97;;;;;;;4.04;100.00;97789.00;5092806;28;20210;-80
2023/04/21 05:20:15;;;;;;;38.30;18.67;;;;;;;4.12;100.00;97796.47;5092000;28;20209;-78
2023/04/21 05:22:43;;;;;;;35.40;17.90;;;;;;;4.17;100.00;97794.50;5092762;28;20206;-78
2023/04/21 05:25:11;;;;;;;28.50;17.10;;;;;;;4.24;100.00;97801.97;5092589;28;20235;-78
2023/04/21 05:27:37;;;;;;;28.50;16.07;;;;;;;4.28;100.00;97802.66;5092753;28;20262;-80
2023/04/21 05:30:04;;;;;;;25.27;15.93;;;;;;;4.32;100.00;97799.81;5092031;28;20206;-78
2023/04/21 05:32:31;;;;;;;29.20;16.07;;;;;;;4.31;100.00;97795.50;5092452;28;20226;-78
2023/04/21 05:34:58;;;;;;;23.70;15.00;;;;;;;4.32;100.00;97802.44;5092459;28;20210;-76
2023/04/21 05:37:25;;;;;;;24.93;15.30;;;;;;;4.34;100.00;97802.34;5092312;28;20208;-78
2023/04/21 05:39:53;;;;;;;40.17;19.40;;;;;;;4.31;100.00;97797.25;5091473;28;20209;-78
2023/04/21 05:42:20;;;;;;;50.97;22.77;;;;;;;4.37;100.00;97803.03;5092543;28;20224;-78
2023/04/21 05:44:47;;;;;;;52.57;23.53;;;;;;;4.42;100.00;97801.06;5092442;28;20255;-78
2023/04/21 05:47:13;;;;;;;51.50;26.00;;;;;;;4.45;100.00;97808.72;5092382;28;20698;-78
2023/04/21 05:49:40;;;;;;;54.23;25.30;;;;;;;4.48;100.00;97812.97;5091522;28;20212;-78
2023/04/21 05:52:09;;;;;;;51.87;22.50;;;;;;;4.53;100.00;97809.19;5092111;28;20229;-78
2023/04/21 05:54:35;;;;;;;46.33;21.00;;;;;;;4.56;100.00;97793.34;5092384;28;20244;-78
2023/04/21 05:57:04;;;;;;;42.23;20.87;;;;;;;4.61;100.00;97801.81;5092650;28;20215;-76
2023/04/21 05:59:31;;;;;;;48.57;20.83;;;;;;;4.64;100.00;97793.78;5091800;28;20208;-76
2023/04/21 06:01:57;;;;;;;36.13;18.57;;;;;;;4.65;100.00;97787.63;5092246;28;20240;-77
2023/04/21 06:04:24;;;;;;;35.80;18.97;;;;;;;4.67;100.00;97784.94;5092286;28;20231;-76
2023/04/21 06:06:50;;;;;;;33.60;18.23;;;;;;;4.70;100.00;97783.00;5092259;28;20222;-78
2023/04/21 06:09:16;;;;;;;35.50;18.57;;;;;;;4.78;100.00;97773.00;5097804;28;20209;-79
2023/04/21 06:11:43;;;;;;;36.43;19.50;;;;;;;4.92;100.00;97780.97;5099083;28;20367;-79
2023/04/21 06:14:11;;;;;;;38.33;20.53;;;;;;;5.09;100.00;97777.47;5094864;28;20218;-80
2023/04/21 06:16:37;;;;;;;46.17;22.87;;;;;;;5.27;100.00;97779.97;5096018;28;20214;-80
2023/04/21 06:19:04;;;;;;;49.47;24.63;;;;;;;5.37;100.00;97767.22;5095778;28;20209;-80
2023/04/21 06:21:31;;;;;;;43.87;22.70;;;;;;;5.47;100.00;97757.91;5095401;28;20240;-80
2023/04/21 06:23:58;;;;;;;40.97;22.73;;;;;;;5.53;100.00;97758.44;5096046;28;20267;-80
2023/04/21 06:26:24;;;;;;;39.30;23.00;;;;;;;5.61;100.00;97750.97;5095508;28;20211;-80
2023/04/21 06:28:51;;;;;;;39.07;22.43;;;;;;;5.61;100.00;97756.22;5090915;28;20288;-81
2023/04/21 06:31:19;;;;;;;39.23;21.97;;;;;;;5.64;100.00;97761.31;5090448;28;20240;-80
2023/04/21 06:33:45;;;;;;;42.43;22.83;;;;;;;5.79;100.00;97783.19;5091448;28;20210;-79
2023/04/21 06:36:12;;;;;;;38.37;22.53;;;;;;;5.88;100.00;97778.31;5091371;28;20206;-77
2023/04/21 06:38:40;;;;;;;37.63;22.30;;;;;;;6.03;100.00;97774.81;5090714;28;20209;-80
2023/04/21 06:41:07;;;;;;;43.67;23.70;;;;;;;6.19;100.00;97777.41;5089514;28;20731;-79
2023/04/21 06:43:33;;;;;;;38.37;22.77;;;;;;;6.41;100.00;97778.72;5088497;28;20213;-80
2023/04/21 06:46:00;;;;;;;39.10;22.93;;;;;;;6.70;100.00;97777.84;5088328;28;20227;-80
2023/04/21 06:48:28;;;;;;;36.17;22.30;;;;;;;6.86;100.00;97777.78;5089116;28;20229;-80
2023/04/21 06:50:55;;;;;;;40.87;23.47;;;;;;;6.93;100.00;97795.72;5089517;28;20230;-80
2023/04/21 06:53:22;;;;;;;35.73;21.77;;;;;;;7.05;100.00;97792.34;5090808;28;20238;-80
2023/04/21 06:55:49;;;;;;;31.87;20.33;;;;;;;7.10;100.00;97774.53;5088185;28;20211;-81
2023/04/21 06:58:15;;;;;;;31.90;20.33;;;;;;;7.11;100.00;97773.59;5088553;28;20207;-80
2023/04/21 07:00:42;;;;;;;27.50;19.47;;;;;;;7.09;100.00;97780.69;5105197;28;20246;-81
2023/04/21 07:03:08;;;;;;;29.07;18.00;;;;;;;7.12;100.00;97788.41;5105863;28;20211;-80
2023/04/21 07:05:36;;;;;;;28.33;18.00;;;;;;;7.08;100.00;97779.00;5093069;28;20251;-81
2023/04/21 07:08:03;;;;;;;28.23;17.63;;;;;;;7.05;100.00;97783.59;5094052;28;20211;-80
2023/04/21 07:10:30;;;;;;;28.33;18.37;;;;;;;7.00;100.00;97775.16;5093477;28;20222;-80
2023/04/21 07:12:57;;;;;;;30.00;18.70;;;;;;;6.99;100.00;97779.59;5088839;28;20757;-82
2023/04/21 07:15:23;;;;;;;27.97;18.53;;;;;;;6.99;100.00;97781.34;5092490;28;20213;-80
2023/04/21 07:17:50;;;;;;;25.97;18.20;;;;;;;7.02;100.00;97789.88;5097342;28;20232;-83
2023/04/21 07:20:17;;;;;;;28.20;18.83;;;;;;;7.15;100.00;97779.50;5093833;28;20206;-83
2023/04/21 07:22:45;;;;;;;25.17;17.37;;;;;;;7.26;100.00;97780.50;5096133;28;20212;-84
2023/04/21 07:25:11;;;;;;;25.17;17.10;;;;;;;7.31;100.00;97778.44;5097442;28;20233;-83
2023/04/21 07:27:38;;;;;;;25.27;17.03;;;;;;;7.32;100.00;97772.25;5097134;28;20304;-83
2023/04/21 07:30:06;;;;;;;26.93;17.87;;;;;;;7.41;100.00;97767.25;5093519;28;20570;-83
2023/04/21 07:32:33;;;;;;;25.37;17.10;;;;;;;7.54;100.00;97762.09;5093081;28;20211;-83
2023/04/21 07:35:00;;;;;;;22.43;15.47;;;;;;;7.69;100.00;97766.38;5088531;28;20332;-82
2023/04/21 07:37:27;;;;;;;20.83;15.07;;;;;;;7.72;100.00;97772.28;5090258;28;20211;-81
2023/04/21 07:39:55;;;;;;;21.20;15.03;;;;;;;7.73;100.00;97762.63;5090959;28;20594;-82
2023/04/21 07:42:21;;;;;;;21.27;14.93;;;;;;;7.78;100.00;97763.19;5092959;28;20230;-82
2023/04/21 07:44:48;;;;;;;23.30;15.43;;;;;;;7.89;100.00;97752.81;5092100;28;20559;-83
2023/04/21 07:47:14;;;;;;;23.00;16.87;;;;;;;8.00;100.00;97755.56;5092105;28;20215;-82
2023/04/21 07:49:41;;;;;;;22.53;15.63;;;;;;;8.07;100.00;97759.50;5093630;28;20206;-82
2023/04/21 07:52:08;;;;;;;23.90;16.27;;;;;;;8.11;100.00;97763.63;5095225;28;20228;-82
2023/04/21 07:54:34;;;;;;;22.50;14.83;;;;;;;8.12;100.00;97765.31;5093987;28;20203;-81
2023/04/21 07:57:02;;;;;;;22.23;15.67;;;;;;;8.20;100.00;97761.25;5092249;28;20214;-82
2023/04/21 07:59:29;;;;;;;20.73;15.03;;;;;;;8.37;100.00;97760.13;5091679;28;20475;-76
2023/04/21 08:01:55;;;;;;;21.27;14.47;;;;;;;8.54;100.00;97765.13;5093103;28;20239;-78
2023/04/21 08:04:22;;;;;;;20.67;16.10;;;;;;;8.66;100.00;97754.63;5094538;28;20432;-80
2023/04/21 08:06:49;;;;;;;19.03;15.13;;;;;;;8.81;100.00;97755.41;5094411;28;20229;-76
2023/04/21 08:09:15;;;;;;;18.13;14.07;;;;;;;8.77;100.00;97748.63;5091287;28;20295;-77
2023/04/21 08:11:42;;;;;;;17.20;12.97;;;;;;;8.91;100.00;97756.44;5092267;28;20228;-77
2023/04/21 08:14:10;;;;;;;17.23;13.17;;;;;;;9.02;100.00;97754.75;5092553;28;20253;-76
2023/04/21 08:16:37;;;;;;;18.07;12.93;;;;;;;9.17;100.00;97747.59;5095083;28;20225;-77
2023/04/21 08:19:03;;;;;;;17.83;13.20;;;;;;;9.24;100.00;97748.84;5094154;28;20687;-77
2023/04/21 08:21:30;;;;;;;15.93;12.13;;;;;;;9.39;100.00;97747.75;5091699;28;20225;-77
2023/04/21 08:23:57;;;;;;;17.07;12.30;;;;;;;9.64;100.00;97742.44;5091398;28;20211;-77
2023/04/21 08:26:24;;;;;;;14.97;12.33;;;;;;;9.88;100.00;97748.56;5091487;28;20230;-76
2023/04/21 08:28:51;;;;;;;18.07;12.93;;;;;;;9.98;100.00;97753.06;5094282;28;20576;-76
2023/04/21 08:31:19;;;;;;;15.77;12.43;;;;;;;10.11;100.00;97758.34;5078677;22;20230;-75
2023/04/21 08:33:46;;;;;;;15.47;11.67;;;;;;;10.25;100.00;97750.25;4989970;28;20216;-74
2023/04/21 08:36:12;;;;;;;16.87;12.00;;;;;;;10.38;100.00;97741.31;4990707;28;20217;-75
2023/04/21 08:38:39;;;;;;;14.70;11.80;;;;;;;10.45;100.00;97737.25;4990086;28;20217;-75
2023/04/21 08:41:06;;;;;;;15.00;11.83;;;;;;;10.64;100.00;97737.53;4997970;28;20235;-75
2023/04/21 08:43:33;;;;;;;13.33;11.50;;;;;;;10.80;100.00;97748.66;5008616;28;20270;-75
2023/04/21 08:46:00;;;;;;;15.97;12.77;;;;;;;10.96;100.00;97754.44;4997918;28;20253;-75
2023/04/21 08:48:29;;;;;;;15.23;11.30;;;;;;;11.14;100.00;97752.19;4991595;28;20216;-75
2023/04/21 08:50:56;;;;;;;14.03;11.07;;;;;;;11.21;100.00;97732.25;4991240;28;20237;-75
2023/04/21 08:53:23;;;;;;;16.03;13.00;;;;;;;11.37;100.00;97738.03;4990199;28;20214;-75
2023/04/21 08:55:52;;;;;;;14.67;11.60;;;;;;;11.46;100.00;97738.16;4990960;28;20674;-75
2023/04/21 08:58:21;;;;;;;15.00;12.07;;;;;;;11.63;100.00;97735.00;4992565;28;20251;-75
2023/04/21 09:00:47;;;;;;;14.23;11.40;;;;;;;11.62;100.00;97743.09;4991531;28;20225;-75
2023/04/21 09:03:20;;;;;;;14.77;11.37;;;;;;;11.55;100.00;97747.16;4993356;28;20218;-75
2023/04/21 09:05:57;;;;;;;14.33;10.47;;;;;;;11.57;100.00;97739.94;4994042;28;20247;-75
2023/04/21 09:08:26;;;;;;;15.03;10.20;;;;;;;11.74;100.00;97731.53;4995104;28;20217;-76
2023/04/21 09:10:52;;;;;;;11.50;9.63;;;;;;;11.72;100.00;97728.13;5011635;28;20226;-77
2023/04/21 09:13:20;;;;;;;14.70;10.70;;;;;;;11.60;100.00;97737.06;5015032;28;20210;-76
2023/04/21 09:15:49;;;;;;;13.60;11.37;;;;;;;11.80;100.00;97749.56;5014828;28;20207;-76
2023/04/21 09:18:18;;;;;;;13.87;10.67;;;;;;;11.79;100.00;97735.47;5011702;28;20198;-76
2023/04/21 09:20:46;;;;;;;13.27;10.23;;;;;;;11.89;100.00;97741.72;4991557;28;20303;-75
2023/04/21 09:23:14;;;;;;;12.60;10.03;;;;;;;11.99;100.00;97736.53;4995988;28;20214;-75
2023/04/21 09:25:47;;;;;;;11.10;9.60;;;;;;;12.17;100.00;97725.25;4990532;28;20236;-78
2023/04/21 09:28:15;;;;;;;12.57;10.10;;;;;;;12.22;100.00;97716.97;4990466;28;20245;-74
2023/04/21 09:30:43;;;;;;;12.27;9.63;;;;;;;12.16;100.00;97713.00;4988538;28;20312;-75
2023/04/21 09:33:16;;;;;;;11.47;9.63;;;;;;;12.15;100.00;97715.75;4990153;28;20561;-74
2023/04/21 09:35:43;;;;;;;11.30;9.40;;;;;;;12.23;100.00;97718.63;4988745;28;20216;-75
2023/04/21 09:38:11;;;;;;;11.20;9.60;;;;;;;12.15;100.00;97710.47;4987681;28;20293;-75
2023/04/21 09:40:39;;;;;;;10.67;9.23;;;;;;;11.96;100.00;97702.34;4986694;28;20210;-73
2023/04/21 09:43:06;;;;;;;11.13;9.40;;;;;;;11.96;100.00;97702.34;4987699;28;20216;-74
2023/04/21 09:45:33;;;;;;;11.17;9.20;;;;;;;11.91;97.71;97693.91;4989907;28;20238;-76
2023/04/21 09:48:01;;;;;;;11.97;9.53;;;;;;;11.85;98.28;97697.06;4989233;28;20209;-75
2023/04/21 09:50:29;;;;;;;10.50;8.83;;;;;;;11.82;100.00;97702.63;4988062;28;20607;-75
2023/04/21 09:52:57;;;;;;;13.13;10.10;;;;;;;12.08;100.00;97723.38;4987502;28;20596;-72
2023/04/21 09:55:28;;;;;;;11.40;9.60;;;;;;;12.33;100.00;97730.13;4986911;28;20247;-73
2023/04/21 09:57:59;;;;;;;11.37;9.47;;;;;;;12.44;100.00;97722.16;4988281;28;20218;-72
2023/04/21 10:00:27;;;;;;;12.77;10.00;;;;;;;12.76;100.00;97722.94;4988203;28;20198;-73
2023/04/21 10:02:55;;;;;;;11.47;9.30;;;;;;;12.94;100.00;97716.09;4985445;28;20234;-74
2023/04/21 10:05:22;;;;;;;12.60;10.20;;;;;;;13.09;100.00;97712.16;4986635;28;20210;-76
2023/04/21 10:07:50;;;;;;;11.70;9.80;;;;;;;13.13;100.00;97700.31;4987426;28;20579;-75
2023/04/21 10:10:21;;;;;;;9.93;8.93;;;;;;;13.06;100.00;97688.53;4989170;28;20221;-74
2023/04/21 10:12:48;;;;;;;11.73;9.07;;;;;;;13.02;100.00;97681.84;4989152;28;20230;-73
2023/04/21 10:15:34;;;;;;;11.23;10.03;;;;;;;13.03;100.00;97683.50;4988077;28;20305;-76
2023/04/21 10:18:17;;;;;;;11.37;9.50;;;;;;;12.97;99.13;97673.44;4994022;28;20330;-76
2023/04/21 10:20:55;;;;;;;11.33;9.27;;;;;;;12.99;95.51;97663.50;4988366;28;20228;-75
2023/04/21 10:23:35;;;;;;;10.33;8.80;;;;;;;13.05;93.70;97663.84;4990192;28;20225;-76
2023/04/21 10:26:09;;;;;;;10.80;8.90;;;;;;;13.21;94.03;97664.16;4990135;28;20240;-75
2023/04/21 10:28:43;;;;;;;9.77;8.37;;;;;;;13.21;95.40;97660.69;4989498;28;20637;-75
2023/04/21 10:31:30;;;;;;;9.67;8.60;;;;;;;13.42;93.72;97653.50;4988449;28;20248;-75
2023/04/21 10:34:19;;;;;;;8.93;7.53;;;;;;;13.51;87.46;97626.16;4989538;28;20217;-76
2023/04/21 10:37:09;;;;;;;10.63;8.73;;;;;;;13.59;93.45;97655.50;4989231;28;20677;-76
2023/04/21 10:39:37;;;;;;;11.00;8.40;;;;;;;13.66;88.46;97635.41;4988503;28;20220;-76
2023/04/21 10:42:24;;;;;;;11.33;9.50;;;;;;;13.83;97.78;97663.94;4989087;28;20712;-76
2023/04/21 10:45:02;;;;;;;10.17;9.07;;;;;;;13.83;97.49;97658.63;4989516;28;20218;-76
2023/04/21 10:47:36;;;;;;;9.37;8.37;;;;;;;13.62;94.17;97661.38;4989094;28;20235;-75
2023/04/21 10:50:21;;;;;;;9.93;8.03;;;;;;;13.68;92.35;97652.06;4988488;28;20217;-76
2023/04/21 10:52:54;;;;;;;9.53;8.27;;;;;;;13.81;88.72;97639.34;4989226;28;20236;-77
2023/04/21 10:55:21;;;;;;;19.10;10.93;;;;;;;13.83;90.33;97643.56;4989288;28;20227;-75
2023/04/21 10:57:49;;;;;;;10.20;8.23;;;;;;;13.98;95.71;97667.88;4988970;28;20207;-75
2023/04/21 11:00:18;;;;;;;12.50;8.80;;;;;;;14.07;91.40;97641.34;4988376;28;20214;-75
2023/04/21 11:02:54;;;;;;;10.77;9.17;;;;;;;14.35;97.32;97663.63;4988727;28;20236;-74
2023/04/21 11:05:26;;;;;;;8.63;7.70;;;;;;;14.38;92.49;97640.25;4988954;28;20675;-75
2023/04/21 11:08:06;;;;;;;9.80;8.00;;;;;;;14.20;87.13;97625.13;4989300;28;20214;-75
2023/04/21 11:10:42;;;;;;;10.83;8.30;;;;;;;14.30;90.63;97642.75;4987723;28;20301;-77
2023/04/21 11:13:10;;;;;;;7.93;7.13;;;;;;;14.20;84.34;97610.03;4987007;28;20211;-76
2023/04/21 11:15:36;;;;;;;8.17;7.10;;;;;;;14.18;84.70;97613.78;4988733;28;20214;-76
2023/04/21 11:18:06;;;;;;;10.80;8.83;;;;;;;14.48;89.56;97634.91;4990684;28;20217;-77
2023/04/21 11:20:32;;;;;;;10.40;9.07;;;;;;;14.89;93.07;97645.16;4990886;28;20306;-75